Aérodrome :
LOGIN :

S'inscrire | Disclaimer

   EN    FR    IT 

 










Légende :    VFR   VFR Marginal   IFR   IFR Intensif   IFR Très Intensif
Visi : 
Plafond : 
>= 8 km
>= 3000ft
5 à 8 km
1000 à 3000 ft
1500m à 5 km
500 à 1000 ft
800 à 1500m
200 à 500 ft
< 800m
< 200 ft
Symboles :   Orages  Brouillard  Fortes neiges  Fortes précipitations  Vent > 20 kt
SIGMETs :   Divers  Orages  Givrage  Turbulence  Onde Orograph.  Cendres Volcan.







- Altitude de l'aérodrome : 289 ft
- Code IATA : ZAD


LDZD - Zadar

DERNIER METAR :
  • 141700Z 00000KT 9999 FEW035 24/18 Q1012 NOSIG

METARs EXPIRÉS :
  • 141630Z 25004KT 210V300 9999 FEW035 23/18 Q1012 NOSIG
  • 141600Z 23009KT 190V260 9999 FEW035 23/18 Q1013 NOSIG
  • 141530Z VRB02KT 9999 FEW035 24/17 Q1012 NOSIG
  • 141500Z VRB02KT 9999 FEW035 BKN075 24/18 Q1012 NOSIG
  • 141430Z 14006KT 110V170 9999 FEW035 BKN075 23/18 Q1013 NOSIG

TAF TAF LDZD
Valide du 14 à 12h jusqu'au 15 à 12h UTC


141126Z 1412/1512 14010KT 9999 FEW035 TX26/1414Z TN20/1503Z
PROB40
TEMPO 1412/1418 TSRA FEW030CB SCT035
TEMPO 1413/1418 32006KT
BECMG 1417/1419 VRB02KT
BECMG 1502/1504 04006KT
TEMPO 1506/1512 04014KT
Pas de NOTAMs connus pour ce terrain.



MET'MAP, la Météo Aéronautique d'un coup d'oeil ! - Copyright ORBIFLY Décembre 2007 - Disclaimer

ORBIFLY MET'MAP TEAM :

Programmation & Développement : Alexandra Zaïnal
Conception & Développement : Baudouin d'Aumeries
Co-Programmation & Développement : Marc-Olivier Méhu
Soutien technique & logistique : Manuel Goepfert

Contact : metmap@orbifly.com




SOURCES & CREDITS :

   NOAA